Terminal Aerodrome Forecast
Issued by NWS

Home | Current Version | Previous Version | Text Only | Print | Product List | Glossary Off
Versions: 1 2 3 4 5 6 7 8 9 10 11 12 13 14 15 16

000
FTUS43 KIWX 271700
TAFSBN
TAF
KSBN 271720Z 2718/2818 26008KT P6SM VCTS SCT025 BKN035CB
      TEMPO 2718/2720 3SM -TSRA BKN025CB
     FM272000 30015G22KT P6SM VCSH BKN035
     FM280100 32012KT P6SM SCT008 BKN035
      TEMPO 2804/2808 5SM BR BKN008
     FM280800 33010KT P6SM BKN015
     FM281400 34013G20KT P6SM BKN025=

USA.gov is the U.S. government's official web portal to all federal, state and local government web resources and services.